createdAt,value
2018-09-08T00:02:22.228Z,21.8
2018-09-08T00:12:21.467Z,21.6
2018-09-08T00:22:20.706Z,21.6
2018-09-08T00:32:19.937Z,21.5
2018-09-08T00:42:19.167Z,21.4
2018-09-08T00:52:18.401Z,21.4
2018-09-08T01:02:17.641Z,21.4
2018-09-08T01:12:16.873Z,21.3
2018-09-08T01:22:16.107Z,21.3
2018-09-08T01:32:15.346Z,21.2
2018-09-08T01:42:14.579Z,21.2
2018-09-08T01:52:13.859Z,21.1
2018-09-08T02:02:13.043Z,20.9
2018-09-08T02:12:12.277Z,20.8
2018-09-08T02:22:11.508Z,20.8
2018-09-08T02:32:10.744Z,20.6
2018-09-08T02:42:09.978Z,20.6
2018-09-08T02:52:09.209Z,20.5
2018-09-08T03:02:08.443Z,20.4
2018-09-08T03:12:07.680Z,20.3
2018-09-08T03:22:06.910Z,20.2
2018-09-08T03:32:06.142Z,20.1
2018-09-08T03:42:05.376Z,20.1
2018-09-08T03:52:04.606Z,20
2018-09-08T04:02:03.841Z,20
2018-09-08T04:12:03.073Z,19.9
2018-09-08T04:22:02.305Z,19.9
2018-09-08T04:32:01.538Z,19.9
2018-09-08T04:42:00.769Z,20.1
2018-09-08T04:52:00.001Z,20.3
2018-09-08T05:01:59.234Z,20.5
2018-09-08T05:11:58.466Z,20.8
2018-09-08T05:21:57.700Z,20.8
2018-09-08T05:31:56.934Z,20.9
2018-09-08T05:41:56.169Z,20.8
2018-09-08T05:51:55.403Z,21
2018-09-08T06:01:54.638Z,21.5
2018-09-08T06:11:53.867Z,21.9
2018-09-08T06:21:53.100Z,22.4
2018-09-08T06:31:52.407Z,22.7
2018-09-08T06:41:51.570Z,23
2018-09-08T06:51:50.803Z,23.4
2018-09-08T07:01:50.041Z,23.7
2018-09-08T07:11:49.271Z,23.9
2018-09-08T07:21:48.503Z,24.1
2018-09-08T07:31:47.739Z,24.4
2018-09-08T07:41:46.974Z,24.8
2018-09-08T07:51:46.209Z,24.9
2018-09-08T08:01:45.445Z,25
2018-09-08T08:11:44.680Z,25.1
2018-09-08T08:21:43.910Z,25.1
2018-09-08T08:31:43.148Z,25.1
2018-09-08T08:41:42.377Z,25.1
2018-09-08T08:51:41.613Z,25.2
2018-09-08T09:01:40.846Z,25.4
2018-09-08T09:11:40.187Z,25.6
2018-09-08T09:21:39.316Z,25.8
2018-09-08T09:31:38.551Z,25.9
2018-09-08T09:41:37.787Z,26.1
2018-09-08T09:51:37.024Z,26.2
2018-09-08T10:01:36.260Z,26.3
2018-09-08T10:11:35.492Z,26.3
2018-09-08T10:21:34.734Z,26.3
2018-09-08T10:31:33.960Z,26.3
2018-09-08T10:41:33.195Z,26.3
2018-09-08T10:51:32.429Z,26.4
2018-09-08T11:01:31.773Z,26.4
2018-09-08T11:11:30.900Z,26.6
2018-09-08T11:21:30.138Z,26.7
2018-09-08T11:31:29.421Z,26.6
2018-09-08T11:41:28.604Z,26.5
2018-09-08T11:51:27.839Z,26.5
2018-09-08T12:01:27.073Z,26.4
2018-09-08T12:11:26.306Z,26.2
2018-09-08T12:21:25.543Z,26
2018-09-08T12:31:24.777Z,25.9
2018-09-08T12:41:24.015Z,25.8
2018-09-08T12:51:23.246Z,25.9
2018-09-08T13:01:22.485Z,26.1
2018-09-08T13:11:21.722Z,26.4
2018-09-08T13:21:20.943Z,26.6
2018-09-08T13:31:20.178Z,26.4
2018-09-08T13:41:19.415Z,26.3
2018-09-08T13:51:18.649Z,26.3
2018-09-08T14:01:17.884Z,26.3
2018-09-08T14:11:17.121Z,26.3
2018-09-08T14:21:16.359Z,26.3
2018-09-08T14:31:15.594Z,26.3
2018-09-08T14:41:14.832Z,26.1
2018-09-08T14:51:14.068Z,26.1
2018-09-08T15:01:13.303Z,25.9
2018-09-08T15:11:12.546Z,25.7
2018-09-08T15:21:11.817Z,24.9
2018-09-08T15:31:11.019Z,24.3
2018-09-08T15:41:10.255Z,24.1
2018-09-08T15:51:09.491Z,23.8
2018-09-08T16:01:08.731Z,23.6
2018-09-08T16:11:07.965Z,23.4
2018-09-08T16:21:07.214Z,23.2
2018-09-08T16:31:06.443Z,23.1
2018-09-08T16:41:05.683Z,23.1
2018-09-08T16:51:04.929Z,23.1
2018-09-08T17:01:04.166Z,23.1
2018-09-08T17:11:03.391Z,23.1
2018-09-08T17:21:02.628Z,23.2
2018-09-08T17:31:01.875Z,23.2
2018-09-08T17:41:01.110Z,23.1
2018-09-08T17:51:00.345Z,22.9
2018-09-08T18:00:59.589Z,22.8
2018-09-08T18:10:58.829Z,22.7
2018-09-08T18:20:58.063Z,22.8
2018-09-08T18:30:57.293Z,22.9
2018-09-08T18:40:56.531Z,23.1
2018-09-08T18:50:55.778Z,23.2
2018-09-08T19:00:55.006Z,23.3
2018-09-08T19:10:54.243Z,23.1
2018-09-08T19:20:53.475Z,23.2
2018-09-08T19:30:52.713Z,23.3
2018-09-08T19:40:51.953Z,23.3
2018-09-08T19:50:51.236Z,23.4
2018-09-08T20:00:50.427Z,23.4
2018-09-08T20:10:49.665Z,23.4
2018-09-08T20:20:48.897Z,23.3
2018-09-08T20:30:48.162Z,23.1
2018-09-08T20:40:47.373Z,22.9
2018-09-08T20:50:46.658Z,22.8
2018-09-08T21:00:45.846Z,22.8
2018-09-08T21:10:45.087Z,22.6
2018-09-08T21:20:44.316Z,22.6
2018-09-08T21:30:43.553Z,22.6
2018-09-08T21:40:42.787Z,22.5
2018-09-08T21:50:42.018Z,22.4
2018-09-08T22:00:41.257Z,22.4
2018-09-08T22:10:40.491Z,22.4
2018-09-08T22:20:39.727Z,22.4
2018-09-08T22:30:38.962Z,22.3
2018-09-08T22:40:38.198Z,22.3
2018-09-08T22:50:37.435Z,22.2
2018-09-08T23:00:36.666Z,22.2
2018-09-08T23:10:35.900Z,22.1
2018-09-08T23:20:35.140Z,22.1
2018-09-08T23:30:34.374Z,22.1
2018-09-08T23:40:33.606Z,22.1
2018-09-08T23:50:32.901Z,22
